Deal, New Jersey
Current Conditions -  °F | °C
As of 11:35 PM on Saturday 25 Oct 2014 (Local Time) from KBLM Reporting Station
Clear Clear  
Wind Chill: 15°   Ceiling: Unl
Heat Index: 15°   Visibility: 10mi
Dew Point:   Wind: 14mph
Humidity: 48%   Direction: 230°SW
Pressure: 29.61"   Gusts: 17mph
Location:  40.24°N, 74°W
Report Text: KBLM 260335Z AUTO 23012G15KT 10SM CLR 15/04 A2961 RMK AO1
Loading
Personal Weather Stations






























Interactive Weather Map
Tropical Storm Tracking
New forecast layout! Learn more

10-Day Weather Forecast

Advertisements
Track Severe Weather on mobile